createdAt,value
2023-03-27T00:01:30.827Z,2.88
2023-03-27T00:09:37.447Z,2.60
2023-03-27T00:17:46.920Z,2.60
2023-03-27T00:25:53.040Z,2.50
2023-03-27T00:34:01.701Z,2.47
2023-03-27T00:42:07.272Z,2.60
2023-03-27T00:50:23.869Z,2.30
2023-03-27T00:58:32.651Z,1.70
2023-03-27T01:06:42.343Z,1.77
2023-03-27T01:15:00.997Z,1.92
2023-03-27T01:23:59.940Z,1.77
2023-03-27T01:32:30.902Z,1.50
2023-03-27T01:40:42.994Z,2.17
2023-03-27T01:48:53.946Z,1.88
2023-03-27T01:57:05.803Z,1.88
2023-03-27T02:05:16.677Z,1.52
2023-03-27T02:13:29.465Z,1.10
2023-03-27T02:21:35.138Z,1.40
2023-03-27T02:29:56.990Z,1.50
2023-03-27T02:38:11.866Z,1.20
2023-03-27T02:46:33.080Z,1.50
2023-03-27T02:54:43.127Z,1.70
2023-03-27T03:02:53.962Z,1.70
2023-03-27T03:11:05.011Z,1.65
2023-03-27T03:19:15.009Z,1.23
2023-03-27T03:27:21.221Z,1.10
2023-03-27T03:35:49.852Z,1.60
2023-03-27T03:44:21.782Z,1.55
2023-03-27T03:52:30.707Z,1.10
2023-03-27T04:00:38.461Z,1.33
2023-03-27T04:08:51.290Z,1.38
2023-03-27T04:17:19.730Z,1.30
2023-03-27T04:25:28.852Z,1.30
2023-03-27T04:33:34.967Z,1.00
2023-03-27T04:41:46.060Z,1.35
2023-03-27T04:49:51.706Z,1.20
2023-03-27T04:58:08.108Z,1.40
2023-03-27T05:06:15.671Z,1.02
2023-03-27T05:14:25.235Z,1.75
2023-03-27T05:22:32.423Z,1.27
2023-03-27T05:30:49.969Z,0.82
2023-03-27T05:38:59.633Z,1.23
2023-03-27T05:47:15.533Z,1.15
2023-03-27T05:55:21.290Z,1.10
2023-03-27T06:03:30.665Z,1.05
2023-03-27T06:11:39.387Z,1.60
2023-03-27T06:19:47.911Z,1.50
2023-03-27T06:27:54.525Z,1.10
2023-03-27T06:36:03.166Z,1.48
2023-03-27T06:44:10.686Z,1.30
2023-03-27T06:52:41.439Z,1.17
2023-03-27T07:01:07.326Z,1.00
2023-03-27T07:09:41.479Z,1.30
2023-03-27T07:17:55.327Z,1.50
2023-03-27T07:26:07.083Z,1.53
2023-03-27T07:34:38.923Z,2.00
2023-03-27T07:42:53.883Z,2.03
2023-03-27T07:51:13.389Z,1.95
2023-03-27T07:59:23.472Z,1.60
2023-03-27T08:07:30.503Z,1.83
2023-03-27T08:15:41.288Z,1.63
2023-03-27T08:23:59.457Z,1.35
2023-03-27T08:32:10.994Z,1.60
2023-03-27T08:40:26.424Z,1.48
2023-03-27T08:48:55.248Z,1.52
2023-03-27T08:57:01.244Z,1.42
2023-03-27T09:05:19.190Z,1.73
2023-03-27T09:13:30.798Z,1.67
2023-03-27T09:21:45.942Z,1.40
2023-03-27T09:30:06.552Z,1.30
2023-03-27T09:38:42.325Z,1.42
2023-03-27T09:46:59.869Z,1.85
2023-03-27T09:55:30.981Z,1.10
2023-03-27T10:03:44.504Z,2.17
2023-03-27T10:11:54.741Z,1.65
2023-03-27T10:20:16.091Z,1.50
2023-03-27T10:28:29.918Z,1.73
2023-03-27T10:36:57.837Z,1.50
2023-03-27T10:45:09.879Z,1.98
2023-03-27T10:53:22.071Z,3.05
2023-03-27T11:01:48.280Z,3.05
2023-03-27T11:10:09.048Z,3.30
2023-03-27T11:18:39.739Z,3.03
2023-03-27T11:26:55.926Z,3.55
2023-03-27T11:35:10.079Z,2.40
2023-03-27T11:43:29.303Z,2.53
2023-03-27T11:51:57.820Z,2.20
2023-03-27T12:00:30.766Z,1.90
2023-03-27T12:08:55.027Z,1.85
2023-03-27T12:17:28.356Z,2.00
2023-03-27T12:26:03.975Z,1.90
2023-03-27T12:34:51.219Z,1.58
2023-03-27T12:43:09.580Z,1.70
2023-03-27T12:51:20.030Z,2.10
2023-03-27T12:59:34.396Z,2.47
2023-03-27T13:07:54.666Z,2.72
2023-03-27T13:16:50.913Z,2.80
2023-03-27T13:25:23.619Z,2.85
2023-03-27T13:33:43.571Z,1.90
2023-03-27T13:42:09.851Z,1.98
2023-03-27T13:50:55.802Z,2.80
2023-03-27T13:59:42.417Z,3.20
2023-03-27T14:08:13.413Z,3.30
2023-03-27T14:17:07.930Z,2.70
2023-03-27T14:25:20.485Z,3.05
2023-03-27T14:41:57.428Z,3.42
2023-03-27T14:50:06.419Z,2.92
2023-03-27T14:58:25.429Z,3.40
2023-03-27T15:06:36.938Z,3.80
2023-03-27T15:14:47.123Z,3.13
2023-03-27T15:23:01.133Z,3.47
2023-03-27T15:31:10.897Z,3.83
2023-03-27T15:39:26.764Z,4.15
2023-03-27T15:47:35.761Z,3.55
2023-03-27T15:55:43.920Z,4.47
2023-03-27T16:04:04.993Z,3.35
2023-03-27T16:12:18.468Z,5.15
2023-03-27T16:20:50.634Z,4.95
2023-03-27T16:28:57.720Z,5.00
2023-03-27T16:37:05.901Z,2.22
2023-03-27T16:45:16.771Z,2.85
2023-03-27T16:53:24.857Z,3.08
2023-03-27T17:01:33.339Z,2.95
2023-03-27T17:09:41.798Z,4.75
2023-03-27T17:17:47.367Z,2.60
2023-03-27T17:25:55.905Z,3.40
2023-03-27T17:34:01.705Z,3.13
2023-03-27T17:42:09.882Z,2.95
2023-03-27T17:50:15.351Z,2.00
2023-03-27T17:58:23.938Z,1.70
2023-03-27T18:06:29.522Z,1.60
2023-03-27T18:14:38.436Z,1.70
2023-03-27T18:22:44.076Z,1.85
2023-03-27T18:31:04.981Z,1.40
2023-03-27T18:39:10.580Z,1.55
2023-03-27T18:47:21.381Z,1.40
2023-03-27T18:55:27.310Z,1.40
2023-03-27T19:03:36.652Z,1.10
2023-03-27T19:11:44.186Z,1.65
2023-03-27T19:20:15.613Z,0.80
2023-03-27T19:28:44.366Z,0.85
2023-03-27T19:36:52.595Z,0.90
2023-03-27T19:44:58.415Z,1.70
2023-03-27T19:53:08.980Z,0.85
2023-03-27T20:01:15.014Z,1.10
2023-03-27T20:09:25.996Z,0.90
2023-03-27T20:17:32.311Z,1.10
2023-03-27T20:25:40.769Z,1.10
2023-03-27T20:33:46.302Z,0.90
2023-03-27T20:41:59.392Z,1.00
2023-03-27T20:50:06.775Z,3.78
2023-03-27T20:58:15.076Z,2.08
2023-03-27T21:06:23.484Z,1.30
2023-03-27T21:14:37.626Z,1.40
2023-03-27T21:22:43.511Z,1.35
2023-03-27T21:30:51.593Z,1.38
2023-03-27T21:38:57.160Z,1.80
2023-03-27T21:47:05.281Z,1.25
2023-03-27T21:55:11.589Z,0.60
2023-03-27T22:03:19.776Z,0.77
2023-03-27T22:11:25.261Z,0.80
2023-03-27T22:19:33.687Z,0.38
2023-03-27T22:27:39.794Z,0.47
2023-03-27T22:35:53.734Z,0.70
2023-03-27T22:43:59.149Z,0.85
2023-03-27T22:52:07.738Z,0.20
2023-03-27T23:00:14.923Z,0.20
2023-03-27T23:08:24.450Z,0.17
2023-03-27T23:16:29.948Z,0.70
2023-03-27T23:24:38.118Z,0.32
2023-03-27T23:32:43.733Z,0.10
2023-03-27T23:40:58.616Z,0.13
2023-03-27T23:49:04.978Z,0.20
2023-03-27T23:57:13.103Z,0.10
